createdAt,value
2019-03-23T00:01:23.348Z,102183.11
2019-03-23T00:03:52.397Z,102183.17
2019-03-23T00:06:30.510Z,102171.80
2019-03-23T00:08:52.224Z,102169.05
2019-03-23T00:11:21.269Z,102173.13
2019-03-23T00:13:50.339Z,102170.24
2019-03-23T00:16:19.464Z,102163.78
2019-03-23T00:18:48.504Z,102165.87
2019-03-23T00:21:17.557Z,102164.36
2019-03-23T00:23:46.632Z,102169.43
2019-03-23T00:26:15.743Z,102168.67
2019-03-23T00:28:44.794Z,102164.31
2019-03-23T00:31:13.867Z,102168.53
2019-03-23T00:33:43.008Z,102163.12
2019-03-23T00:36:12.318Z,102163.73
2019-03-23T00:38:41.776Z,102167.95
2019-03-23T00:41:11.251Z,102169.13
2019-03-23T00:43:40.344Z,102169.95
2019-03-23T00:46:09.500Z,102170.50
2019-03-23T00:48:38.653Z,102163.16
2019-03-23T00:51:07.796Z,102162.28
2019-03-23T00:53:36.998Z,102162.28
2019-03-23T00:56:06.167Z,102159.92
2019-03-23T00:58:35.243Z,102169.60
2019-03-23T01:01:04.403Z,102175.88
2019-03-23T01:03:33.473Z,102174.33
2019-03-23T01:06:02.610Z,102182.61
2019-03-23T01:08:31.736Z,102201.04
2019-03-23T01:11:00.817Z,102203.20
2019-03-23T01:13:29.837Z,102194.97
2019-03-23T01:15:58.976Z,102190.11
2019-03-23T01:18:28.089Z,102191.05
2019-03-23T01:20:57.217Z,102195.69
2019-03-23T01:23:26.282Z,102203.56
2019-03-23T01:25:55.451Z,102198.59
2019-03-23T01:28:24.537Z,102190.09
2019-03-23T01:30:53.661Z,102190.56
2019-03-23T01:33:22.826Z,102175.48
2019-03-23T01:35:51.897Z,102170.05
2019-03-23T01:38:21.056Z,102172.37
2019-03-23T01:40:50.629Z,102172.81
2019-03-23T01:43:19.823Z,102173.95
2019-03-23T01:45:48.971Z,102177.34
2019-03-23T01:48:18.057Z,102178.47
2019-03-23T01:50:47.125Z,102175.19
2019-03-23T01:53:16.196Z,102170.75
2019-03-23T01:55:45.586Z,102174.85
2019-03-23T01:58:14.728Z,102178.33
2019-03-23T02:00:43.799Z,102174.73
2019-03-23T02:03:12.924Z,102177.36
2019-03-23T02:05:42.083Z,102182.20
2019-03-23T02:08:11.312Z,102179.33
2019-03-23T02:10:41.940Z,102174.82
2019-03-23T02:13:11.078Z,102180.52
2019-03-23T02:15:40.115Z,102181.77
2019-03-23T02:18:09.240Z,102186.60
2019-03-23T02:20:38.360Z,102189.78
2019-03-23T02:23:07.563Z,102189.66
2019-03-23T02:25:36.612Z,102197.14
2019-03-23T02:28:05.758Z,102202.74
2019-03-23T02:30:34.817Z,102210.56
2019-03-23T02:33:04.015Z,102210.66
2019-03-23T02:35:33.358Z,102203.89
2019-03-23T02:38:02.474Z,102213.28
2019-03-23T02:40:31.927Z,102205.36
2019-03-23T02:43:01.270Z,102214.75
2019-03-23T02:45:30.716Z,102211.77
2019-03-23T02:47:59.945Z,102214.85
2019-03-23T02:50:28.999Z,102221.50
2019-03-23T02:52:58.115Z,102220.97
2019-03-23T02:55:27.150Z,102225.72
2019-03-23T02:57:56.460Z,102229.64
2019-03-23T03:00:27.608Z,102225.52
2019-03-23T03:02:56.347Z,102239.05
2019-03-23T03:05:25.431Z,102241.80
2019-03-23T03:07:54.544Z,102240.19
2019-03-23T03:10:39.327Z,102236.06
2019-03-23T03:13:08.463Z,102243.79
2019-03-23T03:15:37.504Z,102233.64
2019-03-23T03:18:07.683Z,102230.66
2019-03-23T03:20:37.631Z,102238.62
2019-03-23T03:23:07.132Z,102240.61
2019-03-23T03:25:36.582Z,102237.86
2019-03-23T03:28:05.687Z,102242.28
2019-03-23T03:30:34.787Z,102253.61
2019-03-23T03:33:04.199Z,102243.98
2019-03-23T03:35:33.227Z,102241.23
2019-03-23T03:38:02.650Z,102237.44
2019-03-23T03:40:31.703Z,102232.98
2019-03-23T03:43:01.257Z,102242.38
2019-03-23T03:45:30.383Z,102236.06
2019-03-23T03:47:59.487Z,102240.19
2019-03-23T03:50:28.611Z,102233.60
2019-03-23T03:52:57.728Z,102233.92
2019-03-23T03:55:26.773Z,102235.83
2019-03-23T03:57:56.127Z,102226.20
2019-03-23T04:00:25.189Z,102225.34
2019-03-23T04:02:54.302Z,102227.87
2019-03-23T04:05:23.354Z,102215.49
2019-03-23T04:07:52.910Z,102212.45
2019-03-23T04:10:22.180Z,102212.74
2019-03-23T04:12:51.196Z,102209.47
2019-03-23T04:15:20.242Z,102213.59
2019-03-23T04:17:49.379Z,102223.55
2019-03-23T04:20:18.482Z,102226.30
2019-03-23T04:22:47.611Z,102216.67
2019-03-23T04:25:16.645Z,102229.90
2019-03-23T04:27:45.759Z,102224.92
2019-03-23T04:30:14.826Z,102219.42
2019-03-23T04:32:43.913Z,102224.92
2019-03-23T04:35:13.016Z,102240.34
2019-03-23T04:37:42.111Z,102247.22
2019-03-23T04:40:11.316Z,102248.59
2019-03-23T04:42:40.703Z,102256.84
2019-03-23T04:45:10.649Z,102265.10
2019-03-23T04:47:39.842Z,102267.85
2019-03-23T04:50:09.703Z,102282.98
2019-03-23T04:52:38.733Z,102288.48
2019-03-23T04:55:10.267Z,102286.06
2019-03-23T04:57:40.015Z,102284.06
2019-03-23T05:00:09.562Z,102287.11
2019-03-23T05:02:38.606Z,102292.08
2019-03-23T05:05:07.911Z,102284.36
2019-03-23T05:07:37.013Z,102294.31
2019-03-23T05:10:06.598Z,102295.36
2019-03-23T05:12:36.169Z,102294.55
2019-03-23T05:15:06.017Z,102296.73
2019-03-23T05:17:35.130Z,102301.19
2019-03-23T05:20:04.770Z,102295.69
2019-03-23T05:22:33.826Z,102294.31
2019-03-23T05:25:03.230Z,102295.06
2019-03-23T05:27:32.372Z,102295.36
2019-03-23T05:30:01.539Z,102298.11
2019-03-23T05:32:30.647Z,102294.55
2019-03-23T05:34:59.758Z,102303.61
2019-03-23T05:37:28.876Z,102311.87
2019-03-23T05:39:57.944Z,102311.87
2019-03-23T05:42:26.974Z,102327.00
2019-03-23T05:44:56.020Z,102332.50
2019-03-23T05:47:25.029Z,102327.00
2019-03-23T05:49:54.150Z,102329.75
2019-03-23T05:52:23.247Z,102327.00
2019-03-23T05:54:52.634Z,102328.92
2019-03-23T05:57:21.829Z,102333.34
2019-03-23T05:59:50.872Z,102338.00
2019-03-23T06:02:20.053Z,102337.70
2019-03-23T06:04:49.329Z,102332.20
2019-03-23T06:07:18.354Z,102336.85
2019-03-23T06:09:47.393Z,102343.50
2019-03-23T06:12:17.699Z,102345.95
2019-03-23T06:14:47.077Z,102350.08
2019-03-23T06:17:16.198Z,102338.55
2019-03-23T06:19:45.322Z,102346.81
2019-03-23T06:22:14.435Z,102345.43
2019-03-23T06:24:43.816Z,102344.05
2019-03-23T06:27:12.831Z,102343.20
2019-03-23T06:29:41.959Z,102345.43
2019-03-23T06:32:11.887Z,102359.38
2019-03-23T06:34:41.015Z,102366.59
2019-03-23T06:37:10.053Z,102354.73
2019-03-23T06:39:39.250Z,102360.76
2019-03-23T06:42:08.289Z,102361.61
2019-03-23T06:44:37.355Z,102359.71
2019-03-23T06:47:06.474Z,102358.86
2019-03-23T06:49:35.512Z,102366.88
2019-03-23T06:52:04.602Z,102365.21
2019-03-23T06:54:33.732Z,102370.72
2019-03-23T06:57:03.169Z,102373.13
2019-03-23T06:59:32.229Z,102378.45
2019-03-23T07:02:01.253Z,102375.69
2019-03-23T07:04:30.359Z,102375.69
2019-03-23T07:06:59.380Z,102372.09
2019-03-23T07:09:28.497Z,102372.94
2019-03-23T07:11:57.562Z,102370.72
2019-03-23T07:14:26.668Z,102374.61
2019-03-23T07:16:55.777Z,102372.94
2019-03-23T07:19:24.884Z,102379.59
2019-03-23T07:21:54.023Z,102382.02
2019-03-23T07:24:23.148Z,102382.02
2019-03-23T07:26:52.269Z,102386.70
2019-03-23T07:29:21.356Z,102381.19
2019-03-23T07:31:50.469Z,102397.14
2019-03-23T07:34:19.573Z,102391.64
2019-03-23T07:36:49.436Z,102389.45
2019-03-23T07:39:26.697Z,102400.45
2019-03-23T07:41:49.281Z,102404.02
2019-03-23T07:44:18.422Z,102403.50
2019-03-23T07:46:47.464Z,102393.02
2019-03-23T07:49:16.499Z,102383.39
2019-03-23T07:51:45.610Z,102397.80
2019-03-23T07:54:14.785Z,102401.38
2019-03-23T07:56:43.898Z,102402.75
2019-03-23T07:59:13.352Z,102403.59
2019-03-23T08:01:42.471Z,102411.94
2019-03-23T08:04:11.591Z,102420.08
2019-03-23T08:06:40.699Z,102420.93
2019-03-23T08:09:19.828Z,102433.02
2019-03-23T08:11:40.882Z,102431.67
2019-03-23T08:14:10.005Z,102431.25
2019-03-23T08:16:39.672Z,102416.28
2019-03-23T08:19:08.794Z,102427.19
2019-03-23T08:21:37.920Z,102424.82
2019-03-23T08:24:07.037Z,102432.97
2019-03-23T08:26:36.162Z,102432.59
2019-03-23T08:29:05.300Z,102428.89
2019-03-23T08:31:34.391Z,102428.64
2019-03-23T08:34:03.487Z,102421.44
2019-03-23T08:36:32.608Z,102423.89
2019-03-23T08:39:01.712Z,102423.45
2019-03-23T08:41:30.752Z,102422.06
2019-03-23T08:43:59.881Z,102423.13
2019-03-23T08:46:28.916Z,102424.73
2019-03-23T08:48:58.043Z,102415.48
2019-03-23T08:51:27.727Z,102416.79
2019-03-23T08:53:56.862Z,102424.48
2019-03-23T08:56:25.980Z,102431.86
2019-03-23T08:58:55.034Z,102440.18
2019-03-23T09:01:24.184Z,102445.97
2019-03-23T09:03:53.229Z,102457.73
2019-03-23T09:06:22.326Z,102451.86
2019-03-23T09:08:51.354Z,102452.52
2019-03-23T09:11:20.932Z,102451.83
2019-03-23T09:13:49.999Z,102450.58
2019-03-23T09:16:19.379Z,102452.59
2019-03-23T09:18:48.731Z,102453.46
2019-03-23T09:21:17.863Z,102450.42
2019-03-23T09:23:47.140Z,102448.41
2019-03-23T09:26:16.258Z,102447.59
2019-03-23T09:28:45.575Z,102437.54
2019-03-23T09:31:14.701Z,102441.06
2019-03-23T09:33:43.755Z,102445.11
2019-03-23T09:36:12.792Z,102443.29
2019-03-23T09:38:41.832Z,102444.03
2019-03-23T09:41:10.949Z,102457.17
2019-03-23T09:43:39.982Z,102468.58
2019-03-23T09:46:09.104Z,102461.41
2019-03-23T09:48:38.213Z,102466.27
2019-03-23T09:51:07.542Z,102467.52
2019-03-23T09:53:36.657Z,102457.27
2019-03-23T09:56:06.254Z,102454.73
2019-03-23T09:58:35.275Z,102454.72
2019-03-23T10:01:04.407Z,102445.30
2019-03-23T10:03:33.465Z,102443.61
2019-03-23T10:06:02.569Z,102458.95
2019-03-23T10:08:31.707Z,102458.83
2019-03-23T10:11:00.734Z,102464.21
2019-03-23T10:13:29.865Z,102471.63
2019-03-23T10:15:58.982Z,102480.28
2019-03-23T10:18:28.033Z,102482.65
2019-03-23T10:20:57.142Z,102485.80
2019-03-23T10:23:26.303Z,102486.46
2019-03-23T10:25:55.445Z,102483.48
2019-03-23T10:28:24.569Z,102483.59
2019-03-23T10:30:53.612Z,102480.61
2019-03-23T10:33:22.662Z,102479.56
2019-03-23T10:35:51.677Z,102477.95
2019-03-23T10:38:20.982Z,102473.08
2019-03-23T10:40:50.336Z,102475.83
2019-03-23T10:43:19.370Z,102480.28
2019-03-23T10:45:48.478Z,102485.27
2019-03-23T10:48:17.701Z,102479.23
2019-03-23T10:50:46.801Z,102480.38
2019-03-23T10:53:22.934Z,102488.13
2019-03-23T10:55:46.798Z,102483.44
2019-03-23T10:58:16.184Z,102486.52
2019-03-23T11:00:45.214Z,102484.09
2019-03-23T11:03:14.906Z,102484.72
2019-03-23T11:05:44.119Z,102476.45
2019-03-23T11:08:13.217Z,102483.64
2019-03-23T11:10:43.476Z,102480.88
2019-03-23T11:13:12.587Z,102484.27
2019-03-23T11:15:41.927Z,102489.57
2019-03-23T11:18:11.040Z,102497.31
2019-03-23T11:20:40.242Z,102493.70
2019-03-23T11:23:09.356Z,102498.13
2019-03-23T11:25:38.469Z,102502.26
2019-03-23T11:28:07.484Z,102507.24
2019-03-23T11:30:36.670Z,102513.60
2019-03-23T11:33:05.805Z,102513.08
2019-03-23T11:35:34.942Z,102513.08
2019-03-23T11:38:04.071Z,102521.34
2019-03-23T11:40:33.208Z,102518.78
2019-03-23T11:43:02.346Z,102528.52
2019-03-23T11:45:31.458Z,102528.52
2019-03-23T11:48:00.854Z,102521.64
2019-03-23T11:50:29.911Z,102525.24
2019-03-23T11:52:59.023Z,102533.20
2019-03-23T11:55:28.063Z,102528.75
2019-03-23T11:57:57.182Z,102531.83
2019-03-23T12:00:26.521Z,102530.12
2019-03-23T12:02:55.553Z,102527.38
2019-03-23T12:05:24.576Z,102524.62
2019-03-23T12:07:53.633Z,102530.65
2019-03-23T12:10:22.664Z,102524.28
2019-03-23T12:12:51.679Z,102523.47
2019-03-23T12:15:20.998Z,102520.48
2019-03-23T12:17:50.030Z,102529.59
2019-03-23T12:20:19.055Z,102513.00
2019-03-23T12:22:48.107Z,102539.64
2019-03-23T12:25:17.228Z,102541.02
2019-03-23T12:27:46.363Z,102544.63
2019-03-23T12:30:16.227Z,102559.53
2019-03-23T12:32:45.634Z,102560.62
2019-03-23T12:35:14.613Z,102570.45
2019-03-23T12:37:43.732Z,102572.38
2019-03-23T12:40:13.169Z,102578.94
2019-03-23T12:42:42.197Z,102585.82
2019-03-23T12:45:11.775Z,102581.69
2019-03-23T12:47:40.797Z,102565.39
2019-03-23T12:50:10.134Z,102580.31
2019-03-23T12:52:39.245Z,102572.91
2019-03-23T12:55:08.885Z,102572.38
2019-03-23T12:57:37.997Z,102567.70
2019-03-23T13:00:07.238Z,102566.65
2019-03-23T13:02:36.351Z,102570.25
2019-03-23T13:05:06.294Z,102571.93
2019-03-23T13:07:35.342Z,102572.26
2019-03-23T13:10:05.016Z,102572.59
2019-03-23T13:12:34.134Z,102577.34
2019-03-23T13:15:03.278Z,102568.86
2019-03-23T13:17:32.746Z,102577.97
2019-03-23T13:20:01.932Z,102566.95
2019-03-23T13:22:31.058Z,102567.25
2019-03-23T13:25:00.421Z,102570.00
2019-03-23T13:27:29.522Z,102564.50
2019-03-23T13:29:58.626Z,102570.00
2019-03-23T13:32:28.005Z,102570.96
2019-03-23T13:34:57.139Z,102564.08
2019-03-23T13:37:26.232Z,102562.17
2019-03-23T13:39:55.305Z,102563.23
2019-03-23T13:42:24.416Z,102559.95
2019-03-23T13:44:53.489Z,102562.70
2019-03-23T13:47:22.864Z,102557.72
2019-03-23T13:49:51.908Z,102556.89
2019-03-23T13:52:20.945Z,102553.29
2019-03-23T13:54:50.001Z,102554.14
2019-03-23T13:57:19.047Z,102553.29
2019-03-23T13:59:48.091Z,102554.14
2019-03-23T14:02:17.206Z,102556.14
2019-03-23T14:04:46.249Z,102558.90
2019-03-23T14:07:15.311Z,102555.39
2019-03-23T14:09:44.355Z,102555.39
2019-03-23T14:12:13.414Z,102555.16
2019-03-23T14:14:42.551Z,102546.70
2019-03-23T14:17:11.657Z,102559.92
2019-03-23T14:19:40.773Z,102554.29
2019-03-23T14:22:09.873Z,102554.16
2019-03-23T14:24:38.993Z,102545.80
2019-03-23T14:27:08.102Z,102553.08
2019-03-23T14:29:37.223Z,102555.17
2019-03-23T14:32:06.253Z,102556.78
2019-03-23T14:34:35.306Z,102565.44
2019-03-23T14:37:04.410Z,102560.03
2019-03-23T14:39:33.455Z,102555.80
2019-03-23T14:42:05.186Z,102558.94
2019-03-23T14:44:33.425Z,102561.79
2019-03-23T14:47:02.529Z,102554.99
2019-03-23T14:49:31.634Z,102555.52
2019-03-23T14:52:00.675Z,102551.39
2019-03-23T14:54:30.106Z,102559.66
2019-03-23T14:56:59.153Z,102561.36
2019-03-23T14:59:28.194Z,102562.31
2019-03-23T15:01:57.205Z,102557.95
2019-03-23T15:04:26.266Z,102557.52
2019-03-23T15:06:55.321Z,102573.06
2019-03-23T15:09:24.362Z,102567.73
2019-03-23T15:11:53.389Z,102569.05
2019-03-23T15:14:22.511Z,102566.88
2019-03-23T15:16:51.972Z,102565.55
2019-03-23T15:19:21.089Z,102569.12
2019-03-23T15:21:50.123Z,102575.97
2019-03-23T15:24:19.246Z,102578.06
2019-03-23T15:26:48.659Z,102569.68
2019-03-23T15:29:17.688Z,102570.92
2019-03-23T15:31:48.086Z,102579.52
2019-03-23T15:34:17.206Z,102585.56
2019-03-23T15:36:46.326Z,102583.23
2019-03-23T15:39:15.374Z,102575.53
2019-03-23T15:41:44.421Z,102582.05
2019-03-23T15:44:13.472Z,102588.19
2019-03-23T15:46:42.517Z,102589.61
2019-03-23T15:49:11.658Z,102597.39
2019-03-23T15:51:40.758Z,102600.81
2019-03-23T15:54:09.803Z,102605.90
2019-03-23T15:56:38.916Z,102614.30
2019-03-23T15:59:08.330Z,102606.78
2019-03-23T16:01:37.444Z,102599.99
2019-03-23T16:04:06.551Z,102600.35
2019-03-23T16:06:35.598Z,102612.66
2019-03-23T16:09:05.690Z,102618.69
2019-03-23T16:11:34.800Z,102608.29
2019-03-23T16:14:03.873Z,102620.26
2019-03-23T16:16:32.975Z,102634.06
2019-03-23T16:19:02.124Z,102635.23
2019-03-23T16:21:32.018Z,102640.02
2019-03-23T16:24:01.132Z,102625.84
2019-03-23T16:26:30.243Z,102630.39
2019-03-23T16:28:59.306Z,102637.80
2019-03-23T16:31:28.357Z,102638.98
2019-03-23T16:33:57.975Z,102636.86
2019-03-23T16:36:27.074Z,102635.58
2019-03-23T16:38:56.198Z,102644.14
2019-03-23T16:41:25.751Z,102642.23
2019-03-23T16:43:54.888Z,102637.36
2019-03-23T16:46:24.009Z,102629.95
2019-03-23T16:48:53.065Z,102634.08
2019-03-23T16:51:22.114Z,102635.45
2019-03-23T16:53:51.169Z,102634.61
2019-03-23T16:56:20.745Z,102644.25
2019-03-23T16:58:49.976Z,102649.46
2019-03-23T17:01:19.082Z,102645.52
2019-03-23T17:03:48.207Z,102651.55
2019-03-23T17:06:17.256Z,102648.61
2019-03-23T17:08:46.382Z,102653.59
2019-03-23T17:11:15.435Z,102653.27
2019-03-23T17:13:44.538Z,102657.62
2019-03-23T17:16:13.579Z,102660.37
2019-03-23T17:18:43.485Z,102663.95
2019-03-23T17:21:12.582Z,102661.20
2019-03-23T17:23:42.041Z,102668.83
2019-03-23T17:26:11.153Z,102669.39
2019-03-23T17:28:40.248Z,102674.05
2019-03-23T17:31:09.430Z,102685.48
2019-03-23T17:33:38.453Z,102683.35
2019-03-23T17:36:07.536Z,102679.03
2019-03-23T17:38:36.720Z,102677.95
2019-03-23T17:41:06.009Z,102677.20
2019-03-23T17:43:35.053Z,102680.39
2019-03-23T17:46:04.104Z,102681.13
2019-03-23T17:48:33.239Z,102685.98
2019-03-23T17:51:02.273Z,102683.11
2019-03-23T17:53:31.647Z,102690.95
2019-03-23T17:56:00.761Z,102685.84
2019-03-23T17:58:29.883Z,102683.78
2019-03-23T18:00:59.002Z,102686.31
2019-03-23T18:03:28.111Z,102686.31
2019-03-23T18:05:57.332Z,102696.29
2019-03-23T18:08:26.365Z,102697.34
2019-03-23T18:10:55.407Z,102700.95
2019-03-23T18:13:24.894Z,102692.88
2019-03-23T18:15:54.014Z,102700.09
2019-03-23T18:18:23.122Z,102698.94
2019-03-23T18:20:52.171Z,102700.32
2019-03-23T18:23:21.571Z,102699.47
2019-03-23T18:25:50.691Z,102707.89
2019-03-23T18:28:19.793Z,102701.23
2019-03-23T18:30:48.846Z,102705.36
2019-03-23T18:33:18.296Z,102709.50
2019-03-23T18:35:47.346Z,102707.16
2019-03-23T18:38:16.454Z,102717.03
2019-03-23T18:40:45.519Z,102718.30
2019-03-23T18:43:14.885Z,102725.72
2019-03-23T18:45:45.235Z,102724.89
2019-03-23T18:48:14.359Z,102718.72
2019-03-23T18:50:43.516Z,102714.92
2019-03-23T18:53:12.548Z,102720.43
2019-03-23T18:55:41.681Z,102728.70
2019-03-23T18:58:10.726Z,102728.92
2019-03-23T19:00:42.513Z,102734.63
2019-03-23T19:03:11.615Z,102736.75
2019-03-23T19:05:40.680Z,102743.30
2019-03-23T19:08:11.753Z,102741.41
2019-03-23T19:10:40.667Z,102743.64
2019-03-23T19:13:09.694Z,102738.65
2019-03-23T19:15:38.820Z,102739.28
2019-03-23T19:18:07.951Z,102740.66
2019-03-23T19:20:37.079Z,102747.35
2019-03-23T19:23:07.149Z,102749.88
2019-03-23T19:25:36.268Z,102763.47
2019-03-23T19:28:05.407Z,102765.15
2019-03-23T19:30:34.538Z,102764.09
2019-03-23T19:33:03.563Z,102759.11
2019-03-23T19:35:32.597Z,102758.26
2019-03-23T19:38:01.652Z,102761.02
2019-03-23T19:40:31.024Z,102764.09
2019-03-23T19:43:00.057Z,102759.41
2019-03-23T19:45:29.200Z,102764.09
2019-03-23T19:47:58.290Z,102755.84
2019-03-23T19:50:27.406Z,102756.88
2019-03-23T19:52:56.498Z,102766.23
2019-03-23T19:55:25.606Z,102760.72
2019-03-23T19:57:55.655Z,102764.84
2019-03-23T20:00:24.787Z,102765.89
2019-03-23T20:02:53.865Z,102767.80
2019-03-23T20:05:22.964Z,102763.66
2019-03-23T20:07:52.142Z,102766.42
2019-03-23T20:10:21.390Z,102768.32
2019-03-23T20:12:50.451Z,102771.08
2019-03-23T20:15:19.645Z,102769.39
2019-03-23T20:17:48.739Z,102772.67
2019-03-23T20:20:19.972Z,102775.77
2019-03-23T20:22:49.085Z,102780.94
2019-03-23T20:25:18.197Z,102777.66
2019-03-23T20:27:47.313Z,102774.58
2019-03-23T20:30:16.491Z,102788.35
2019-03-23T20:32:45.652Z,102788.26
2019-03-23T20:35:15.580Z,102787.80
2019-03-23T20:37:44.703Z,102780.49
2019-03-23T20:40:13.866Z,102773.13
2019-03-23T20:42:43.956Z,102774.22
2019-03-23T20:45:14.642Z,102771.57
2019-03-23T20:47:43.747Z,102772.73
2019-03-23T20:50:13.752Z,102769.76
2019-03-23T20:52:42.943Z,102774.26
2019-03-23T20:55:24.027Z,102775.59
2019-03-23T20:57:53.414Z,102777.61
2019-03-23T21:00:22.536Z,102784.88
2019-03-23T21:02:51.576Z,102782.34
2019-03-23T21:05:20.695Z,102782.77
2019-03-23T21:07:49.943Z,102785.97
2019-03-23T21:10:19.061Z,102781.95
2019-03-23T21:12:48.226Z,102784.59
2019-03-23T21:15:17.328Z,102784.91
2019-03-23T21:17:51.547Z,102780.58
2019-03-23T21:20:17.278Z,102776.75
2019-03-23T21:22:46.330Z,102782.59
2019-03-23T21:25:16.254Z,102779.31
2019-03-23T21:27:45.722Z,102782.92
2019-03-23T21:30:15.332Z,102782.37
2019-03-23T21:32:44.358Z,102783.23
2019-03-23T21:35:15.660Z,102783.75
2019-03-23T21:37:44.473Z,102783.23
2019-03-23T21:40:13.513Z,102784.30
2019-03-23T21:42:42.611Z,102783.56
2019-03-23T21:45:12.012Z,102787.36
2019-03-23T21:47:41.057Z,102779.95
2019-03-23T21:50:10.238Z,102780.81
2019-03-23T21:52:39.681Z,102780.47
2019-03-23T21:55:09.476Z,102774.97
2019-03-23T21:57:38.558Z,102773.59
2019-03-23T22:00:08.470Z,102778.05
2019-03-23T22:02:37.626Z,102772.22
2019-03-23T22:05:07.185Z,102774.75
2019-03-23T22:07:36.540Z,102767.86
2019-03-23T22:10:06.634Z,102769.58
2019-03-23T22:12:36.010Z,102771.06
2019-03-23T22:15:05.702Z,102770.73
2019-03-23T22:17:34.743Z,102766.59
2019-03-23T22:20:04.145Z,102760.79
2019-03-23T22:22:33.277Z,102769.05
2019-03-23T22:25:02.645Z,102771.47
2019-03-23T22:27:31.708Z,102769.80
2019-03-23T22:30:00.823Z,102767.04
2019-03-23T22:32:30.021Z,102765.96
2019-03-23T22:34:59.143Z,102760.67
2019-03-23T22:37:28.240Z,102760.16
2019-03-23T22:39:57.275Z,102760.16
2019-03-23T22:42:26.377Z,102758.45
2019-03-23T22:44:55.446Z,102753.80
2019-03-23T22:47:24.574Z,102762.05
2019-03-23T22:49:53.721Z,102757.41
2019-03-23T22:52:22.867Z,102754.65
2019-03-23T22:54:51.982Z,102756.33
2019-03-23T22:57:21.400Z,102757.70
2019-03-23T22:59:50.510Z,102754.95
2019-03-23T23:02:19.555Z,102754.95
2019-03-23T23:04:48.695Z,102750.82
2019-03-23T23:07:17.729Z,102752.20
2019-03-23T23:09:46.859Z,102754.95
2019-03-23T23:12:15.947Z,102758.55
2019-03-23T23:14:45.491Z,102751.16
2019-03-23T23:17:14.527Z,102746.69
2019-03-23T23:19:43.708Z,102750.08
2019-03-23T23:22:12.773Z,102746.17
2019-03-23T23:24:41.832Z,102750.82
2019-03-23T23:27:10.863Z,102749.97
2019-03-23T23:29:39.945Z,102746.69
2019-03-23T23:32:09.382Z,102750.82
2019-03-23T23:34:38.512Z,102746.69
2019-03-23T23:37:07.642Z,102752.72
2019-03-23T23:39:37.095Z,102747.77
2019-03-23T23:42:06.310Z,102750.82
2019-03-23T23:44:36.961Z,102745.83
2019-03-23T23:47:06.225Z,102745.31
2019-03-23T23:49:35.326Z,102751.05
2019-03-23T23:52:04.362Z,102756.84
2019-03-23T23:54:33.500Z,102756.02
2019-03-23T23:57:02.563Z,102755.17
2019-03-23T23:59:31.698Z,102754.31
